Time;durP1;ratioP1;P1;durP2;ratioP2;P2;SDS_P1;SDS_P2;PMS_P1;PMS_P2;Temp;Humidity;BMP_temperature;BMP_pressure;BME280_temperature;BME280_humidity;BME280_pressure;Samples;Min_cycle;Max_cycle;Signal;HPM_P1;HPM_P2
2023/07/05 00:02:10;;;;;;;;;11.67;8.00;;;;;19.20;60.22;100653.69;5037795;28;45454;-74
2023/07/05 00:04:36;;;;;;;;;13.00;9.67;;;;;19.01;60.20;100624.25;5019405;28;45498;-70
2023/07/05 00:07:02;;;;;;;;;9.00;9.00;;;;;19.23;60.13;100666.84;5019918;28;45469;-70
2023/07/05 00:09:29;;;;;;;;;16.67;12.33;;;;;18.82;59.80;100602.78;5037071;28;45334;-71
2023/07/05 00:11:56;;;;;;;;;17.33;12.33;;;;;19.22;59.76;100677.50;5020158;28;46552;-70
2023/07/05 00:14:22;;;;;;;;;13.33;11.67;;;;;18.80;59.89;100620.53;5036267;28;45750;-69
2023/07/05 00:16:48;;;;;;;;;17.67;13.00;;;;;18.90;59.87;100652.06;5036199;28;45356;-70
2023/07/05 00:19:14;;;;;;;;;43.67;25.67;;;;;18.83;60.03;100644.31;5035315;28;45424;-71
2023/07/05 00:21:39;;;;;;;;;18.33;13.33;;;;;19.06;59.97;100698.41;5037095;28;45422;-71
2023/07/05 00:24:05;;;;;;;;;17.33;10.33;;;;;18.94;60.08;100694.38;5036837;28;45791;-77
2023/07/05 00:26:31;;;;;;;;;12.00;10.00;;;;;18.91;60.02;100696.25;5039669;28;45526;-75
2023/07/05 00:28:56;;;;;;;;;13.67;9.67;;;;;18.91;59.96;100702.47;5039638;28;45419;-76
2023/07/05 00:31:22;;;;;;;;;12.00;9.33;;;;;18.65;60.00;100656.38;5039524;28;45968;-78
2023/07/05 00:33:47;;;;;;;;;12.33;12.00;;;;;18.74;59.86;100689.69;5022138;28;45454;-77
2023/07/05 00:36:13;;;;;;;;;10.67;10.00;;;;;18.76;59.58;100709.09;5037895;28;45371;-77
2023/07/05 00:38:39;;;;;;;;;13.00;11.00;;;;;18.68;59.86;100700.50;5039885;28;45184;-80
2023/07/05 00:41:05;;;;;;;;;13.00;11.67;;;;;18.59;59.51;100696.34;5037917;28;46077;-77
2023/07/05 00:43:30;;;;;;;;;14.00;11.33;;;;;18.64;59.75;100720.09;5038581;28;45961;-79
2023/07/05 00:45:59;;;;;;;;;13.00;13.00;;;;;18.57;59.73;100715.88;5040249;28;45548;-76
2023/07/05 00:48:30;;;;;;;;;13.67;10.33;;;;;18.59;59.65;100717.56;5039530;28;45399;-79
2023/07/05 00:50:58;;;;;;;;;10.00;10.00;;;;;18.59;59.37;100717.56;5021021;28;47908;-76
2023/07/05 00:53:26;;;;;;;;;15.33;9.67;;;;;18.61;59.41;100731.66;5038634;28;45312;-79
2023/07/05 00:56:09;;;;;;;;;19.33;14.33;;;;;18.57;59.41;100722.06;5040356;28;45464;-79
2023/07/05 00:58:35;;;;;;;;;10.67;7.67;;;;;18.37;59.08;100692.66;5044628;28;45350;-79
2023/07/05 01:01:05;;;;;;;;;10.33;8.33;;;;;18.45;59.16;100709.19;5045075;28;46090;-81
2023/07/05 01:03:32;;;;;;;;;18.33;10.67;;;;;18.56;59.00;100736.25;5042768;28;45343;-79
2023/07/05 01:06:00;;;;;;;;;13.33;9.67;;;;;18.54;58.71;100745.16;5043774;28;45449;-80
2023/07/05 01:08:25;;;;;;;;;12.00;12.00;;;;;18.51;59.12;100747.91;5041378;28;45354;-79
2023/07/05 01:11:00;;;;;;;;;9.67;7.67;;;;;18.45;58.96;100751.63;5041160;28;45424;-79
2023/07/05 01:13:36;;;;;;;;;10.33;9.33;;;;;18.34;58.95;100751.97;5041361;28;45444;-80
2023/07/05 01:16:19;;;;;;;;;14.00;9.33;;;;;18.45;58.89;100764.88;5042002;28;45391;-76
2023/07/05 01:18:58;;;;;;;;;17.67;9.67;;;;;18.40;59.22;100770.31;5044049;28;45433;-74
2023/07/05 01:21:43;;;;;;;;;12.33;11.33;;;;;18.34;58.77;100766.97;5027246;28;46306;-79
2023/07/05 01:24:48;;;;;;;;;14.00;9.67;;;;;18.26;58.95;100767.22;5027169;28;45485;-75
2023/07/05 01:27:44;;;;;;;;;10.67;10.00;;;;;18.23;58.93;100762.88;5045387;28;45178;-76
2023/07/05 01:30:12;;;;;;;;;8.33;6.33;;;;;18.16;59.05;100758.66;5048049;28;44866;-75
2023/07/05 01:33:09;;;;;;;;;11.00;10.00;;;;;18.22;58.82;100761.13;5042871;28;45698;-77
2023/07/05 01:35:44;;;;;;;;;12.67;8.67;;;;;18.17;58.66;100762.16;5037363;28;45414;-70
2023/07/05 01:38:10;;;;;;;;;11.33;9.67;;;;;18.11;58.03;100743.81;5043113;28;45323;-75
2023/07/05 01:40:36;;;;;;;;;16.00;8.67;;;;;18.12;58.44;100766.75;5041482;28;45253;-71
2023/07/05 01:43:10;;;;;;;;;10.00;7.00;;;;;18.00;58.37;100749.41;5046051;28;46111;-73
2023/07/05 01:46:02;;;;;;;;;9.33;8.67;;;;;18.04;58.24;100761.66;5046664;28;45347;-73
2023/07/05 01:48:56;;;;;;;;;11.67;7.67;;;;;17.97;58.00;100758.31;5045262;28;45483;-72
2023/07/05 01:51:39;;;;;;;;;10.33;8.00;;;;;18.00;57.83;100768.81;5027464;28;45285;-70
2023/07/05 01:54:18;;;;;;;;;9.67;6.33;;;;;17.93;57.84;100769.03;5042022;28;46044;-72
2023/07/05 01:56:54;;;;;;;;;10.67;6.00;;;;;17.96;57.62;100791.03;5041528;28;45193;-72
2023/07/05 01:59:25;;;;;;;;;10.00;7.00;;;;;17.89;58.02;100785.94;5044205;28;45527;-73
2023/07/05 02:01:55;;;;;;;;;6.00;5.67;;;;;17.87;57.61;100793.03;5044880;28;45248;-70
2023/07/05 02:04:26;;;;;;;;;8.50;6.50;;;;;17.88;57.46;100806.25;5042579;28;45482;-70
2023/07/05 02:06:53;;;;;;;;;9.00;4.00;;;;;17.83;57.78;100804.66;5041009;28;45435;-70
2023/07/05 02:09:19;;;;;;;;;5.00;4.33;;;;;17.85;57.92;100814.31;5039908;28;45512;-71
2023/07/05 02:11:45;;;;;;;;;8.00;6.00;;;;;17.86;57.87;100805.44;5022804;28;46151;-71
2023/07/05 02:14:11;;;;;;;;;5.00;5.00;;;;;17.88;57.10;100802.75;5043510;28;45690;-80
2023/07/05 02:16:38;;;;;;;;;9.67;5.00;;;;;17.89;56.96;100802.72;5045874;28;45419;-80
2023/07/05 02:19:06;;;;;;;;;5.00;4.00;;;;;17.74;56.45;100790.69;5044031;28;45371;-80
2023/07/05 02:21:32;;;;;;;;;5.00;3.00;;;;;17.80;56.41;100800.28;5043583;28;45453;-78
2023/07/05 02:23:57;;;;;;;;;3.00;3.00;;;;;17.76;56.70;100806.56;5043537;28;45451;-79
2023/07/05 02:26:23;;;;;;;;;5.33;4.00;;;;;17.56;56.74;100796.50;5042673;28;45198;-77
2023/07/05 02:28:49;;;;;;;;;6.00;4.33;;;;;17.59;56.96;100812.31;5025917;28;45374;-80
2023/07/05 02:31:15;;;;;;;;;5.00;4.00;;;;;17.63;56.33;100807.78;5044259;28;45438;-79
2023/07/05 02:33:43;;;;;;;;;4.67;3.00;;;;;17.47;56.59;100794.94;5043841;28;45490;-78
2023/07/05 02:36:12;;;;;;;;;5.00;4.00;;;;;17.60;56.34;100824.63;5042427;28;45529;-82
2023/07/05 02:38:39;;;;;;;;;5.00;4.67;;;;;17.62;56.64;100827.25;5041097;28;45446;-76
2023/07/05 02:41:04;;;;;;;;;4.50;3.00;;;;;17.59;56.52;100815.81;5042430;28;45798;-79
2023/07/05 02:43:30;;;;;;;;;5.33;3.33;;;;;17.63;56.56;100827.22;5040122;28;46387;-81
2023/07/05 02:45:55;;;;;;;;;7.33;4.00;;;;;17.64;57.03;100834.25;5040597;28;45895;-73
2023/07/05 02:48:21;;;;;;;;;5.33;3.33;;;;;17.65;56.97;100841.25;5038163;28;45324;-78
2023/07/05 02:50:46;;;;;;;;;4.33;3.67;;;;;17.64;56.93;100850.13;5033164;28;45337;-79
2023/07/05 02:53:12;;;;;;;;;5.67;3.67;;;;;17.59;56.95;100838.78;5023010;28;45611;-79
2023/07/05 02:55:38;;;;;;;;;8.00;3.00;;;;;17.54;56.69;100844.19;5021747;28;45462;-78
2023/07/05 02:58:03;;;;;;;;;6.67;2.33;;;;;17.55;56.87;100845.06;5039552;28;45509;-80
2023/07/05 03:00:30;;;;;;;;;3.00;3.00;;;;;17.56;56.67;100850.34;5042556;28;45321;-74
2023/07/05 03:02:57;;;;;;;;;5.67;4.00;;;;;17.56;56.52;100865.34;5040954;28;45518;-75
2023/07/05 03:05:23;;;;;;;;;4.33;3.00;;;;;17.50;56.59;100842.53;5040819;28;45275;-74
2023/07/05 03:07:49;;;;;;;;;5.00;3.00;;;;;17.46;56.66;100855.88;5041230;28;45362;-77
2023/07/05 03:10:16;;;;;;;;;3.33;3.33;;;;;17.34;56.93;100846.47;5054313;28;45476;-74
2023/07/05 03:12:43;;;;;;;;;5.00;2.00;;;;;17.22;56.89;100844.09;5054386;28;45338;-80
2023/07/05 03:15:09;;;;;;;;;2.00;2.00;;;;;17.32;57.21;100862.41;5057649;28;45245;-79
2023/07/05 03:17:34;;;;;;;;;1.33;1.33;;;;;17.18;57.01;100838.03;5058459;28;45843;-77
2023/07/05 03:20:06;;;;;;;;;4.67;4.00;;;;;17.29;56.83;100862.44;5046471;28;45218;-81
2023/07/05 03:22:33;;;;;;;;;4.00;2.00;;;;;17.29;57.04;100873.03;5044052;28;45518;-79
2023/07/05 03:24:59;;;;;;;;;3.33;3.00;;;;;17.25;57.09;100863.44;5041516;28;45309;-77
2023/07/05 03:27:28;;;;;;;;;3.33;3.33;;;;;17.27;56.98;100880.13;5041700;28;45264;-78
2023/07/05 03:29:55;;;;;;;;;6.00;3.00;;;;;17.22;57.57;100867.94;5041064;28;45480;-75
2023/07/05 03:32:22;;;;;;;;;6.67;2.33;;;;;17.24;57.36;100888.16;5039487;28;45951;-72
2023/07/05 03:34:50;;;;;;;;;7.67;2.67;;;;;17.22;57.08;100887.31;5021543;28;45436;-73
2023/07/05 03:37:16;;;;;;;;;5.00;3.33;;;;;17.16;57.16;100887.47;5021833;28;45352;-73
2023/07/05 03:39:41;;;;;;;;;3.00;3.00;;;;;17.08;57.12;100869.09;5039099;28;45174;-77
2023/07/05 03:42:07;;;;;;;;;3.00;1.67;;;;;17.10;57.28;100892.91;5039336;28;46198;-72
2023/07/05 03:44:33;;;;;;;;;4.00;2.00;;;;;17.07;57.44;100892.97;5039737;28;45349;-69
2023/07/05 03:46:58;;;;;;;;;2.33;2.33;;;;;17.00;57.67;100884.28;5039087;28;45485;-71
2023/07/05 03:49:24;;;;;;;;;3.33;2.33;;;;;17.03;57.23;100894.81;5038916;28;45269;-72
2023/07/05 03:51:49;;;;;;;;;9.67;3.67;;;;;16.90;57.47;100881.00;5039324;28;45681;-71
2023/07/05 03:54:15;;;;;;;;;4.33;3.00;;;;;17.00;57.35;100899.31;5039184;28;45573;-71
2023/07/05 03:56:40;;;;;;;;;3.33;3.33;;;;;17.08;57.35;100902.66;5040462;28;45259;-71
2023/07/05 03:59:06;;;;;;;;;4.67;3.67;;;;;17.08;57.41;100900.88;5042238;28;45410;-71
2023/07/05 04:01:32;;;;;;;;;5.67;2.33;;;;;17.04;57.71;100908.94;5042113;28;45582;-70
2023/07/05 04:04:00;;;;;;;;;3.00;2.67;;;;;17.02;57.65;100919.53;5038715;28;45584;-76
2023/07/05 04:06:29;;;;;;;;;2.67;2.00;;;;;17.01;57.60;100917.78;5038456;28;45335;-70
2023/07/05 04:08:55;;;;;;;;;3.00;3.00;;;;;16.97;57.69;100921.41;5038463;28;45549;-70
2023/07/05 04:11:21;;;;;;;;;5.00;4.00;;;;;16.90;57.76;100910.09;5038759;28;46632;-71
2023/07/05 04:13:48;;;;;;;;;6.00;3.33;;;;;17.02;58.16;100937.19;5019864;28;45357;-69
2023/07/05 04:16:18;;;;;;;;;4.00;3.33;;;;;16.90;57.94;100911.88;5020158;28;45447;-71
2023/07/05 04:18:45;;;;;;;;;3.00;3.00;;;;;17.00;58.32;100939.00;5038299;28;45459;-70
2023/07/05 04:21:12;;;;;;;;;2.00;2.00;;;;;16.94;58.28;100935.59;5038455;28;45518;-79
2023/07/05 04:23:43;;;;;;;;;4.67;3.67;;;;;16.99;58.40;100948.72;5039953;28;45382;-74
2023/07/05 04:26:14;;;;;;;;;1.00;1.00;;;;;16.95;58.35;100949.69;5021718;28;45451;-78
2023/07/05 04:28:43;;;;;;;;;6.00;2.33;;;;;16.92;58.57;100944.47;5039374;28;45667;-80
2023/07/05 04:31:10;;;;;;;;;10.33;4.00;;;;;16.99;58.87;100955.75;5038992;28;45472;-71
2023/07/05 04:33:37;;;;;;;;;3.00;1.00;;;;;17.03;58.59;100962.75;5038108;28;45526;-79
2023/07/05 04:36:03;;;;;;;;;6.67;3.67;;;;;16.92;58.83;100961.19;5040010;28;46089;-74
2023/07/05 04:38:29;;;;;;;;;12.00;6.00;;;;;16.98;58.74;100957.53;5041593;28;45650;-72
2023/07/05 04:40:57;;;;;;;;;3.33;1.00;;;;;17.02;59.05;100958.38;5023326;28;47567;-76
2023/07/05 04:43:24;;;;;;;;;4.00;4.00;;;;;17.08;59.01;100961.72;5045636;28;45311;-82
2023/07/05 04:45:50;;;;;;;;;8.67;4.67;;;;;17.11;58.83;100963.47;5044991;28;46174;-79
2023/07/05 04:48:19;;;;;;;;;8.33;6.00;;;;;16.89;59.05;100921.56;5044085;28;45435;-81
2023/07/05 04:50:48;;;;;;;;;7.33;3.00;;;;;17.17;58.78;100963.31;5023476;28;46715;-82
2023/07/05 04:53:14;;;;;;;;;8.33;5.00;;;;;17.07;58.59;100935.31;5040872;28;45474;-80
2023/07/05 04:55:47;;;;;;;;;4.00;3.67;;;;;17.27;58.64;100963.97;5039559;28;45324;-79
2023/07/05 04:58:12;;;;;;;;;6.33;4.33;;;;;17.40;59.72;100972.53;5019402;28;45350;-81
2023/07/05 05:00:38;;;;;;;;;8.00;6.00;;;;;17.30;59.27;100938.31;5000700;28;46332;-74
2023/07/05 05:03:04;;;;;;;;;5.67;5.67;;;;;17.24;58.25;100922.56;5017354;28;45495;-78
2023/07/05 05:05:29;;;;;;;;;10.00;6.00;;;;;17.49;58.34;100967.91;5018718;28;45621;-71
2023/07/05 05:07:55;;;;;;;;;6.00;4.00;;;;;17.41;59.09;100961.91;5019050;28;45368;-78
2023/07/05 05:10:20;;;;;;;;;9.33;6.00;;;;;17.45;58.34;100990.06;5019525;28;45344;-74
2023/07/05 05:12:46;;;;;;;;;7.33;6.00;;;;;17.37;58.67;100973.50;5017378;28;45486;-70
2023/07/05 05:15:11;;;;;;;;;9.00;5.00;;;;;17.28;58.97;100966.59;5017594;28;46041;-74
2023/07/05 05:17:37;;;;;;;;;10.67;5.67;;;;;17.29;58.79;100967.47;5016057;28;45481;-71
2023/07/05 05:20:03;;;;;;;;;10.33;5.33;;;;;17.29;59.58;100960.38;5000115;28;47038;-73
2023/07/05 05:22:33;;;;;;;;;8.33;7.00;;;;;17.35;58.86;100946.16;5017454;28;45416;-77
2023/07/05 05:24:59;;;;;;;;;7.33;4.33;;;;;17.47;60.58;100939.72;5020110;28;46097;-72
2023/07/05 05:27:24;;;;;;;;;6.00;4.00;;;;;17.76;59.17;100984.06;5020334;28;45323;-78
2023/07/05 05:29:50;;;;;;;;;8.33;5.33;;;;;17.90;58.45;100981.97;5022820;28;45951;-85
2023/07/05 05:32:16;;;;;;;;;7.00;3.67;;;;;18.01;59.04;100974.63;5024330;28;45294;-74
2023/07/05 05:34:42;;;;;;;;;18.67;13.67;;;;;18.14;57.67;100983.13;5019740;28;46064;-80
2023/07/05 05:37:07;;;;;;;;;5.67;5.00;;;;;18.11;58.72;100958.50;5019365;28;45435;-75
2023/07/05 05:39:34;;;;;;;;;5.67;5.67;;;;;18.38;57.48;100978.97;5018418;28;46148;-78
2023/07/05 05:41:59;;;;;;;;;7.00;5.00;;;;;18.32;57.53;100954.41;5016269;28;45460;-75
2023/07/05 05:44:25;;;;;;;;;5.67;4.00;;;;;18.54;56.38;100990.06;5017984;28;45518;-76
2023/07/05 05:46:50;;;;;;;;;7.33;5.33;;;;;18.64;55.83;100985.38;5017355;28;45332;-75
2023/07/05 05:49:19;;;;;;;;;5.00;3.33;;;;;18.58;55.18;100982.88;5017150;28;46172;-77
2023/07/05 05:51:45;;;;;;;;;7.33;6.00;;;;;18.67;55.19;100992.38;4999908;28;45528;-77
2023/07/05 05:54:11;;;;;;;;;7.00;4.67;;;;;18.45;55.08;100971.72;5017901;28;45399;-77
2023/07/05 05:56:37;;;;;;;;;5.00;5.00;;;;;18.65;55.45;101003.03;5024296;28;45404;-81
2023/07/05 05:59:02;;;;;;;;;10.33;4.67;;;;;18.57;57.05;100962.56;5038052;28;45400;-81
2023/07/05 06:01:28;;;;;;;;;6.33;4.67;;;;;18.76;56.07;100992.13;5039470;28;45339;-78
2023/07/05 06:03:56;;;;;;;;;6.33;5.00;;;;;18.86;55.76;101006.88;5038621;28;45302;-80
2023/07/05 06:06:21;;;;;;;;;9.67;4.00;;;;;18.84;55.93;101006.97;5035092;28;45250;-78
2023/07/05 06:08:47;;;;;;;;;4.67;4.00;;;;;18.86;55.09;101001.59;5039594;28;45232;-75
2023/07/05 06:11:13;;;;;;;;;5.33;3.33;;;;;18.85;55.25;100989.25;5040208;28;45337;-80
2023/07/05 06:13:39;;;;;;;;;7.67;5.67;;;;;18.98;54.82;101000.38;5040167;28;45398;-78
2023/07/05 06:16:05;;;;;;;;;6.33;4.00;;;;;19.13;55.69;101017.66;5039707;28;45435;-75
2023/07/05 06:18:30;;;;;;;;;9.00;4.33;;;;;19.15;55.10;101019.34;5022780;28;45475;-81
2023/07/05 06:20:56;;;;;;;;;10.67;5.67;;;;;19.26;55.49;101014.56;5039588;28;45273;-78
2023/07/05 06:23:22;;;;;;;;;4.00;4.00;;;;;19.24;54.70;100997.84;5026857;28;45585;-76
2023/07/05 06:25:49;;;;;;;;;7.67;5.00;;;;;19.30;54.99;101023.34;5038877;28;45657;-71
2023/07/05 06:28:16;;;;;;;;;5.67;3.00;;;;;19.24;55.04;101011.13;5037746;28;46062;-73
2023/07/05 06:30:42;;;;;;;;;7.00;5.33;;;;;19.32;54.13;101002.91;5035959;28;45490;-73
2023/07/05 06:33:12;;;;;;;;;6.33;5.33;;;;;19.57;53.78;101003.03;5038594;28;45297;-70
2023/07/05 06:35:38;;;;;;;;;5.00;4.33;;;;;19.82;53.42;101018.25;5003100;28;45417;-72
2023/07/05 06:38:03;;;;;;;;;8.00;4.00;;;;;19.82;53.38;101024.44;5021495;28;46603;-70
2023/07/05 06:40:29;;;;;;;;;4.67;4.00;;;;;19.74;52.98;101004.31;5029567;28;45340;-80
2023/07/05 06:42:55;;;;;;;;;5.33;4.33;;;;;19.77;52.96;101014.88;5041097;28;45270;-74
2023/07/05 06:45:20;;;;;;;;;8.00;4.67;;;;;19.69;53.22;101015.09;5039905;28;45363;-77
2023/07/05 06:47:46;;;;;;;;;8.00;5.00;;;;;19.75;52.90;101044.16;5040228;28;46169;-78
2023/07/05 06:50:13;;;;;;;;;5.00;5.00;;;;;19.75;53.57;101045.94;5041020;28;45376;-76
2023/07/05 06:52:39;;;;;;;;;7.33;6.00;;;;;19.70;53.47;101038.97;5040314;28;45386;-78
2023/07/05 06:55:05;;;;;;;;;5.67;5.33;;;;;19.80;53.97;101051.97;5041589;28;45549;-73
2023/07/05 06:57:31;;;;;;;;;9.00;6.00;;;;;19.75;53.41;101048.59;5024160;28;47880;-77
2023/07/05 06:59:57;;;;;;;;;6.00;5.67;;;;;19.74;53.15;101039.72;5024888;28;45523;-74
2023/07/05 07:02:22;;;;;;;;;7.33;5.00;;;;;19.73;52.87;101055.75;5042228;28;45500;-75
2023/07/05 07:04:48;;;;;;;;;6.33;6.33;;;;;19.68;52.85;101066.50;5043027;28;45369;-82
2023/07/05 07:07:13;;;;;;;;;6.00;5.00;;;;;19.50;52.88;101046.63;5024381;28;47025;-73
2023/07/05 07:09:40;;;;;;;;;5.33;5.00;;;;;19.59;53.11;101058.78;5041126;28;46215;-74
2023/07/05 07:12:07;;;;;;;;;10.67;5.67;;;;;19.59;53.12;101062.31;5041100;28;45280;-77
2023/07/05 07:14:34;;;;;;;;;5.33;5.33;;;;;19.49;53.11;101056.41;5040626;28;45253;-74
2023/07/05 07:16:59;;;;;;;;;5.00;4.00;;;;;19.51;53.19;101079.41;5039248;28;46116;-79
2023/07/05 07:19:25;;;;;;;;;4.00;4.00;;;;;19.48;53.43;101080.34;5039682;28;45454;-79
2023/07/05 07:21:51;;;;;;;;;6.33;4.67;;;;;19.38;53.45;101085.06;5039786;28;45333;-71
2023/07/05 07:24:19;;;;;;;;;10.00;5.67;;;;;19.28;53.43;101067.66;5039709;28;45474;-70
2023/07/05 07:26:45;;;;;;;;;5.33;5.33;;;;;19.39;53.35;101083.28;5037817;28;46729;-80
2023/07/05 07:29:11;;;;;;;;;4.67;3.67;;;;;19.39;53.24;101100.09;5038850;28;45436;-72
2023/07/05 07:31:38;;;;;;;;;9.00;4.00;;;;;19.39;53.44;101097.44;5038742;28;45249;-71
2023/07/05 07:34:07;;;;;;;;;4.67;3.00;;;;;19.44;53.49;101094.66;5039455;28;45482;-76
2023/07/05 07:36:35;;;;;;;;;4.33;3.33;;;;;19.51;53.25;101098.00;5041840;28;46157;-75
2023/07/05 07:39:02;;;;;;;;;5.33;4.67;;;;;19.35;53.23;101073.66;5045055;28;45348;-79
2023/07/05 07:41:36;;;;;;;;;5.00;5.00;;;;;19.48;53.07;101107.81;5041515;28;45353;-70
2023/07/05 07:44:05;;;;;;;;;7.00;4.33;;;;;19.54;52.91;101112.06;5040049;28;45574;-70
2023/07/05 07:46:32;;;;;;;;;5.00;4.33;;;;;19.51;53.31;101114.81;5041450;28;46178;-72
2023/07/05 07:48:59;;;;;;;;;4.00;4.00;;;;;19.60;53.28;101125.16;5042394;28;45505;-81
2023/07/05 07:51:28;;;;;;;;;7.00;4.33;;;;;19.59;53.16;101119.88;5040274;28;45558;-79
2023/07/05 07:53:55;;;;;;;;;4.67;2.67;;;;;19.62;52.96;101128.66;5040304;28;45396;-83
2023/07/05 07:56:26;;;;;;;;;4.67;4.67;;;;;19.64;53.10;101120.63;5038009;28;46952;-82
2023/07/05 07:58:54;;;;;;;;;5.00;3.33;;;;;19.67;53.08;101124.06;5034207;28;45553;-83
2023/07/05 08:01:32;;;;;;;;;5.00;4.00;;;;;19.68;53.10;101111.69;5022500;28;45410;-85
2023/07/05 08:04:00;;;;;;;;;8.00;5.67;;;;;19.32;52.61;101053.38;5021549;28;45404;-84
2023/07/05 08:06:40;;;;;;;;;6.00;3.67;;;;;19.62;53.52;101125.09;5028959;28;46279;-82
2023/07/05 08:09:08;;;;;;;;;8.67;5.67;;;;;19.59;52.83;101114.56;5042853;28;45534;-81
2023/07/05 08:11:36;;;;;;;;;5.67;4.00;;;;;19.62;53.29;101112.72;5042599;28;45390;-80
2023/07/05 08:14:02;;;;;;;;;8.00;5.00;;;;;19.66;53.29;101082.47;5040976;28;45379;-79
2023/07/05 08:16:27;;;;;;;;;4.33;4.00;;;;;19.83;52.81;101097.06;5039713;28;45388;-79
2023/07/05 08:18:53;;;;;;;;;4.33;4.33;;;;;19.97;52.60;101104.59;5039968;28;45312;-82
2023/07/05 08:21:19;;;;;;;;;5.00;5.00;;;;;19.89;52.21;101081.78;5043687;28;45383;-78
2023/07/05 08:23:45;;;;;;;;;6.00;3.67;;;;;20.24;53.81;101100.19;5009600;28;45271;-74
2023/07/05 08:26:12;;;;;;;;;3.33;3.33;;;;;20.33;53.04;101100.78;5041736;28;45530;-71
2023/07/05 08:28:38;;;;;;;;;5.00;4.33;;;;;20.60;51.69;101106.13;5042014;28;45380;-75
2023/07/05 08:31:05;;;;;;;;;3.33;3.33;;;;;20.69;51.09;101112.91;5042198;28;45495;-82
2023/07/05 08:33:32;;;;;;;;;7.00;5.33;;;;;20.60;50.85;101122.09;5023358;28;45448;-82
2023/07/05 08:36:10;;;;;;;;;4.33;4.33;;;;;20.48;50.87;101106.53;5040413;28;46306;-83
2023/07/05 08:38:41;;;;;;;;;5.67;4.67;;;;;20.57;50.94;101121.31;5039907;28;45477;-78
2023/07/05 08:41:25;;;;;;;;;4.67;3.67;;;;;20.47;51.07;101126.06;5040017;28;45461;-77
2023/07/05 08:44:04;;;;;;;;;4.33;3.00;;;;;20.40;51.63;101121.84;5039999;28;45204;-80
2023/07/05 08:46:32;;;;;;;;;3.67;3.67;;;;;20.56;51.13;101141.75;5021644;28;47873;-75
2023/07/05 08:49:12;;;;;;;;;5.00;3.33;;;;;20.52;50.98;101138.31;5039016;28;45500;-73
2023/07/05 08:51:40;;;;;;;;;7.00;6.33;;;;;20.50;50.79;101137.47;5040075;28;45446;-78
2023/07/05 08:54:11;;;;;;;;;5.67;5.00;;;;;20.27;51.12;101114.28;5040485;28;45336;-72
2023/07/05 08:56:46;;;;;;;;;7.67;5.67;;;;;20.40;51.03;101133.34;5039438;28;45708;-79
2023/07/05 08:59:31;;;;;;;;;4.33;4.33;;;;;20.38;50.52;101156.47;5039982;28;45315;-74
2023/07/05 09:01:59;;;;;;;;;6.00;5.67;;;;;20.19;51.08;101126.94;5040627;28;45283;-81
2023/07/05 09:04:34;;;;;;;;;5.33;4.33;;;;;20.29;50.81;101155.00;5042212;28;45500;-84
2023/07/05 09:07:20;;;;;;;;;7.33;6.33;;;;;20.04;51.07;101130.09;5041531;28;45384;-82
2023/07/05 09:10:19;;;;;;;;;6.00;4.00;;;;;20.24;51.70;101140.97;5020963;28;45422;-76
2023/07/05 09:12:48;;;;;;;;;7.00;4.33;;;;;20.26;51.95;101131.16;4999052;28;45582;-78
2023/07/05 09:15:23;;;;;;;;;5.00;3.33;;;;;20.48;51.95;101147.28;5017038;28;45490;-77
2023/07/05 09:18:05;;;;;;;;;4.00;4.00;;;;;20.64;51.13;101144.16;5017398;28;46343;-80
2023/07/05 09:21:02;;;;;;;;;4.67;4.67;;;;;20.75;50.83;101142.00;5017685;28;46110;-77
2023/07/05 09:24:18;;;;;;;;;6.00;4.00;;;;;20.89;50.76;101144.19;5018018;28;45385;-77
2023/07/05 09:27:01;;;;;;;;;5.33;4.00;;;;;20.96;50.32;101127.09;4985187;28;45398;-77
2023/07/05 09:29:55;;;;;;;;;4.67;4.00;;;;;21.09;50.02;101138.16;5017783;28;45329;-75
2023/07/05 09:32:33;;;;;;;;;4.67;4.33;;;;;21.13;49.68;101138.00;5010859;28;45571;-79
2023/07/05 09:35:00;;;;;;;;;5.00;4.00;;;;;21.26;49.65;101137.56;5019523;28;45503;-78
2023/07/05 09:37:34;;;;;;;;;4.33;4.00;;;;;21.25;49.69;101128.69;5021186;28;45524;-80
2023/07/05 09:40:17;;;;;;;;;5.67;4.00;;;;;21.63;48.60;101129.13;5022064;28;48645;-82
2023/07/05 09:42:56;;;;;;;;;3.67;3.67;;;;;21.74;48.37;101140.25;5025645;28;45371;-78
2023/07/05 09:45:23;;;;;;;;;4.00;4.00;;;;;21.61;48.46;101122.97;5026555;28;44773;-75
2023/07/05 09:47:54;;;;;;;;;7.00;3.67;;;;;21.68;48.05;101151.13;5028990;28;45245;-77
2023/07/05 09:50:21;;;;;;;;;5.33;5.33;;;;;21.65;47.50;101140.59;5029235;28;45158;-79
2023/07/05 09:52:58;;;;;;;;;4.67;4.67;;;;;21.60;47.57;101145.22;5024271;28;45495;-75
2023/07/05 09:55:27;;;;;;;;;4.00;4.00;;;;;21.61;47.61;101141.63;5003948;28;45344;-76
2023/07/05 09:57:53;;;;;;;;;5.67;5.00;;;;;21.79;46.99;101156.06;5020477;28;45241;-81
2023/07/05 10:00:33;;;;;;;;;5.00;4.67;;;;;21.91;47.42;101146.75;5018105;28;45453;-74
2023/07/05 10:03:09;;;;;;;;;4.67;3.67;;;;;21.93;47.58;101144.88;5017901;28;45493;-76
2023/07/05 10:05:34;;;;;;;;;3.00;3.00;;;;;21.85;46.95;101136.28;5002199;28;45460;-78
2023/07/05 10:08:04;;;;;;;;;5.00;3.00;;;;;22.01;46.43;101158.78;5039129;28;45519;-73
2023/07/05 10:10:37;;;;;;;;;4.33;3.00;;;;;22.05;45.98;101152.41;5041564;28;45460;-76
2023/07/05 10:13:15;;;;;;;;;5.00;4.00;;;;;22.09;46.13;101139.78;5041149;28;45517;-70
2023/07/05 10:15:49;;;;;;;;;5.00;3.67;;;;;22.19;45.53;101152.72;5038272;28;45446;-70
2023/07/05 10:18:35;;;;;;;;;5.00;5.00;;;;;22.23;46.13;101157.06;5039890;28;45593;-70
2023/07/05 10:21:04;;;;;;;;;5.33;4.33;;;;;22.24;46.22;101144.56;5039498;28;46448;-74
2023/07/05 10:23:32;;;;;;;;;3.67;3.67;;;;;22.46;45.80;101146.38;5038710;28;45450;-79
2023/07/05 10:26:03;;;;;;;;;4.00;4.00;;;;;22.60;44.92;101160.88;5041040;28;45469;-75
2023/07/05 10:28:31;;;;;;;;;4.00;3.00;;;;;22.73;45.21;101163.91;5040943;28;45593;-78
2023/07/05 10:30:59;;;;;;;;;5.67;4.00;;;;;22.70;45.08;101144.47;5043473;28;46807;-79
2023/07/05 10:33:37;;;;;;;;;3.33;3.00;;;;;22.85;44.65;101155.38;5047144;28;45414;-79
2023/07/05 10:36:12;;;;;;;;;5.33;3.67;;;;;22.85;44.84;101163.41;5049770;28;44825;-80
2023/07/05 10:38:51;;;;;;;;;5.00;5.00;;;;;22.83;44.44;101151.91;5046228;28;45372;-79
2023/07/05 10:41:19;;;;;;;;;3.00;3.00;;;;;22.95;44.63;101165.69;5041009;28;45514;-74
2023/07/05 10:43:58;;;;;;;;;5.00;5.00;;;;;22.94;44.27;101167.47;5025619;28;45305;-72
2023/07/05 10:46:26;;;;;;;;;5.67;5.00;;;;;22.88;43.98;101138.34;5039919;28;45651;-71
2023/07/05 10:48:53;;;;;;;;;6.33;4.67;;;;;22.86;44.11;101138.41;5039966;28;45183;-72
2023/07/05 10:51:26;;;;;;;;;4.67;3.00;;;;;22.85;43.65;101149.16;5039629;28;45292;-74
2023/07/05 10:54:22;;;;;;;;;7.33;4.00;;;;;22.80;43.76;101154.72;5039894;28;45477;-72
2023/07/05 10:56:49;;;;;;;;;7.00;5.33;;;;;22.74;43.57;101146.09;5004989;28;45399;-81
2023/07/05 10:59:51;;;;;;;;;6.00;5.67;;;;;22.88;44.38;101169.53;5024011;28;45474;-75
2023/07/05 11:02:36;;;;;;;;;6.67;5.33;;;;;22.99;43.91;101169.97;5039980;28;46381;-70
2023/07/05 11:05:03;;;;;;;;;6.00;4.67;;;;;22.91;44.47;101146.22;5040583;28;45277;-70
2023/07/05 11:07:32;;;;;;;;;5.67;4.00;;;;;22.91;44.57;101137.34;5022739;28;45321;-73
2023/07/05 11:10:00;;;;;;;;;4.67;4.67;;;;;23.08;44.10;101164.22;5040994;28;45389;-77
2023/07/05 11:12:29;;;;;;;;;4.67;4.67;;;;;23.18;43.67;101165.59;5040508;28;45375;-71
2023/07/05 11:14:57;;;;;;;;;4.67;4.00;;;;;23.35;42.69;101174.63;5040466;28;45470;-76
2023/07/05 11:17:37;;;;;;;;;7.33;4.33;;;;;23.45;42.12;101157.28;5041109;28;45399;-76
2023/07/05 11:20:35;;;;;;;;;8.00;5.33;;;;;23.53;42.38;101140.88;5041653;28;45424;-76
2023/07/05 11:23:00;;;;;;;;;5.33;5.33;;;;;23.52;42.47;101134.66;5040291;28;45468;-74
2023/07/05 11:25:52;;;;;;;;;4.00;4.00;;;;;23.61;42.08;101146.72;5040066;28;45335;-71
2023/07/05 11:28:43;;;;;;;;;4.00;4.00;;;;;23.48;42.01;101154.44;5013085;28;45375;-74
2023/07/05 11:31:29;;;;;;;;;6.33;5.00;;;;;23.53;41.28;101138.19;5040714;28;45453;-80
2023/07/05 11:34:23;;;;;;;;;11.67;9.33;;;;;23.63;41.35;101145.75;5040114;28;46692;-79
2023/07/05 11:36:51;;;;;;;;;8.00;6.33;;;;;23.53;41.63;101109.66;5039061;28;45438;-77